createdAt,value
2018-07-30T00:00:34.463Z,99959.23
2018-07-30T00:03:19.368Z,99959.02
2018-07-30T00:05:47.587Z,99954.12
2018-07-30T00:08:16.223Z,99953.56
2018-07-30T00:10:44.354Z,99959.00
2018-07-30T00:13:12.556Z,99954.78
2018-07-30T00:15:40.779Z,99956.54
2018-07-30T00:35:30.926Z,99974.79
2018-07-30T00:37:58.989Z,99970.34
2018-07-30T00:40:28.090Z,99978.47
2018-07-30T00:42:57.492Z,99973.03
2018-07-30T00:45:25.589Z,99975.02
2018-07-30T00:47:53.875Z,99977.38
2018-07-30T00:50:22.626Z,99980.44
2018-07-30T00:52:50.836Z,99985.55
2018-07-30T00:55:18.911Z,99985.92
2018-07-30T00:57:46.997Z,99977.84
2018-07-30T01:00:16.725Z,99980.09
2018-07-30T01:02:44.827Z,99981.18
2018-07-30T01:05:12.894Z,99987.84
2018-07-30T01:07:41.145Z,99983.42
2018-07-30T01:10:09.322Z,99987.95
2018-07-30T01:12:37.416Z,99985.75
2018-07-30T01:15:06.656Z,99997.52
2018-07-30T01:17:34.690Z,99981.53
2018-07-30T01:20:02.813Z,99985.10
2018-07-30T01:22:31.094Z,99997.33
2018-07-30T01:24:59.167Z,99997.48
2018-07-30T01:27:27.264Z,100002.05
2018-07-30T01:29:55.618Z,99998.69
2018-07-30T01:32:23.725Z,100009.20
2018-07-30T01:34:56.503Z,100008.16
2018-07-30T01:37:24.938Z,100004.34
2018-07-30T01:39:54.102Z,100010.77
2018-07-30T01:42:22.340Z,100012.05
2018-07-30T01:44:50.599Z,100014.02
2018-07-30T01:47:18.697Z,100021.69
2018-07-30T01:49:47.092Z,100018.00
2018-07-30T01:52:16.202Z,100017.16
2018-07-30T01:54:44.342Z,100021.56
2018-07-30T01:57:12.470Z,100025.81
2018-07-30T01:59:41.195Z,100024.27
2018-07-30T02:02:09.453Z,100027.97
2018-07-30T02:04:37.531Z,100029.58
2018-07-30T02:07:05.948Z,100028.99
2018-07-30T02:09:33.982Z,100031.95
2018-07-30T02:12:02.068Z,100033.87
2018-07-30T02:14:30.114Z,100036.22
2018-07-30T02:16:59.673Z,100030.76
2018-07-30T02:19:28.511Z,100034.81
2018-07-30T02:21:56.601Z,100038.02
2018-07-30T02:24:24.706Z,100039.75
2018-07-30T02:26:53.223Z,100040.29
2018-07-30T02:29:21.307Z,100040.98
2018-07-30T02:31:49.714Z,100038.33
2018-07-30T02:34:17.826Z,100040.91
2018-07-30T02:36:46.074Z,100042.84
2018-07-30T02:39:14.789Z,100041.08
2018-07-30T02:58:58.636Z,100034.31
2018-07-30T03:01:28.408Z,100038.02
2018-07-30T03:03:56.600Z,100034.11
2018-07-30T03:06:24.702Z,100042.48
2018-07-30T03:08:52.894Z,100033.55
2018-07-30T03:11:21.089Z,100036.44
2018-07-30T03:13:50.634Z,100036.07
2018-07-30T03:16:18.847Z,100037.95
2018-07-30T03:18:48.894Z,100041.19
2018-07-30T03:21:17.009Z,100041.42
2018-07-30T03:23:45.147Z,100043.13
2018-07-30T03:26:14.351Z,100042.78
2018-07-30T03:28:42.648Z,100044.61
2018-07-30T03:48:25.896Z,100060.48
2018-07-30T03:50:54.005Z,100062.55
2018-07-30T03:53:22.325Z,100064.41
2018-07-30T03:55:50.463Z,100071.95
2018-07-30T03:58:18.565Z,100070.19
2018-07-30T04:00:50.061Z,100077.21
2018-07-30T04:03:18.830Z,100067.48
2018-07-30T04:05:46.918Z,100067.03
2018-07-30T04:08:15.038Z,100065.30
2018-07-30T04:10:43.258Z,100057.81
2018-07-30T04:13:11.405Z,100064.66
2018-07-30T04:15:39.576Z,100062.84
2018-07-30T04:18:08.898Z,100063.11
2018-07-30T04:37:52.694Z,100074.77
2018-07-30T04:40:22.226Z,100077.58
2018-07-30T04:42:50.672Z,100079.91
2018-07-30T04:45:19.089Z,100073.02
2018-07-30T04:47:47.303Z,100074.51
2018-07-30T04:50:17.169Z,100071.30
2018-07-30T04:52:45.337Z,100068.95
2018-07-30T04:55:13.423Z,100064.37
2018-07-30T04:57:42.087Z,100076.67
2018-07-30T05:00:11.275Z,100079.38
2018-07-30T05:02:39.519Z,100078.80
2018-07-30T05:05:07.987Z,100084.97
2018-07-30T05:07:38.472Z,100076.77
2018-07-30T05:10:06.636Z,100077.05
2018-07-30T05:12:34.749Z,100076.30
2018-07-30T05:15:03.652Z,100072.68
2018-07-30T05:17:31.907Z,100073.88
2018-07-30T05:20:01.411Z,100074.89
2018-07-30T05:22:29.547Z,100074.44
2018-07-30T05:24:57.710Z,100073.12
2018-07-30T05:27:25.820Z,100075.80
2018-07-30T05:29:54.387Z,100076.06
2018-07-30T05:32:23.308Z,100072.95
2018-07-30T05:34:52.661Z,100074.99
2018-07-30T05:37:20.851Z,100086.48
2018-07-30T05:39:49.139Z,100087.13
2018-07-30T05:42:17.286Z,100087.23
2018-07-30T05:44:45.399Z,100090.48
2018-07-30T05:47:13.667Z,100095.31
2018-07-30T05:49:41.790Z,100086.59
2018-07-30T05:52:10.028Z,100089.75
2018-07-30T05:54:39.837Z,100092.06
2018-07-30T05:57:08.107Z,100092.89
2018-07-30T05:59:37.210Z,100103.69
2018-07-30T06:02:05.291Z,100109.34
2018-07-30T06:04:33.415Z,100115.88
2018-07-30T06:07:01.887Z,100119.09
2018-07-30T06:09:30.033Z,100115.03
2018-07-30T06:11:58.130Z,100113.17
2018-07-30T06:14:26.255Z,100121.74
2018-07-30T06:16:54.755Z,100127.93
2018-07-30T06:19:23.142Z,100129.34
2018-07-30T06:21:51.286Z,100135.38
2018-07-30T06:41:34.672Z,100145.23
2018-07-30T06:44:06.371Z,100145.62
2018-07-30T06:46:34.578Z,100151.13
2018-07-30T06:49:02.766Z,100146.72
2018-07-30T06:51:36.914Z,100146.63
2018-07-30T06:54:06.736Z,100148.30
2018-07-30T06:56:35.331Z,100153.77
2018-07-30T06:59:20.532Z,100152.64
2018-07-30T07:01:59.153Z,100141.12
2018-07-30T07:04:27.621Z,100151.64
2018-07-30T07:06:55.764Z,100146.69
2018-07-30T07:09:24.214Z,100147.61
2018-07-30T07:11:52.823Z,100154.02
2018-07-30T07:14:21.223Z,100153.79
2018-07-30T07:16:49.374Z,100153.63
2018-07-30T07:19:18.339Z,100155.53
2018-07-30T07:21:46.688Z,100159.57
2018-07-30T07:24:14.714Z,100154.57
2018-07-30T07:26:43.034Z,100160.66
2018-07-30T07:29:14.635Z,100149.81
2018-07-30T07:31:44.294Z,100153.94
2018-07-30T07:34:12.407Z,100149.37
2018-07-30T07:36:40.727Z,100145.89
2018-07-30T07:39:11.633Z,100146.57
2018-07-30T07:41:39.971Z,100149.09
2018-07-30T07:44:08.210Z,100155.05
2018-07-30T07:46:36.534Z,100154.34
2018-07-30T07:49:04.816Z,100151.69
2018-07-30T07:51:33.073Z,100144.86
2018-07-30T07:54:01.206Z,100146.86
2018-07-30T07:56:29.380Z,100146.48
2018-07-30T07:58:57.522Z,100143.56
2018-07-30T08:01:25.715Z,100144.52
2018-07-30T08:03:53.989Z,100147.88
2018-07-30T08:06:22.252Z,100153.50
2018-07-30T08:08:50.231Z,100153.76
2018-07-30T08:11:18.581Z,100154.58
2018-07-30T08:13:46.660Z,100152.71
2018-07-30T08:33:29.533Z,100151.38
2018-07-30T08:35:58.135Z,100150.47
2018-07-30T08:38:27.262Z,100154.71
2018-07-30T08:40:55.472Z,100155.73
2018-07-30T08:43:23.719Z,100158.87
2018-07-30T08:45:52.984Z,100160.30
2018-07-30T08:48:22.275Z,100152.42
2018-07-30T08:50:51.084Z,100156.77
2018-07-30T08:53:19.329Z,100158.61
2018-07-30T08:55:47.480Z,100158.58
2018-07-30T08:58:15.595Z,100160.28
2018-07-30T09:00:43.916Z,100162.50
2018-07-30T09:03:12.199Z,100161.47
2018-07-30T09:05:40.328Z,100159.38
2018-07-30T09:08:08.473Z,100151.86
2018-07-30T09:10:36.784Z,100155.10
2018-07-30T09:13:09.958Z,100147.55
2018-07-30T09:15:38.151Z,100142.31
2018-07-30T09:18:07.731Z,100146.08
2018-07-30T09:20:36.089Z,100148.24
2018-07-30T09:23:04.218Z,100148.98
2018-07-30T09:25:32.513Z,100147.33
2018-07-30T09:28:00.627Z,100145.48
2018-07-30T09:30:28.790Z,100139.77
2018-07-30T09:32:57.022Z,100142.19
2018-07-30T09:35:25.934Z,100134.33
2018-07-30T09:37:54.054Z,100142.15
2018-07-30T09:40:22.300Z,100138.42
2018-07-30T09:42:50.439Z,100136.73
2018-07-30T09:45:19.676Z,100131.73
2018-07-30T09:47:47.829Z,100132.76
2018-07-30T09:50:16.054Z,100127.75
2018-07-30T09:52:44.266Z,100135.77
2018-07-30T09:55:12.532Z,100133.89
2018-07-30T09:57:40.727Z,100131.03
2018-07-30T10:00:09.732Z,100133.47
2018-07-30T10:02:38.588Z,100131.70
2018-07-30T10:05:06.735Z,100126.82
2018-07-30T10:07:35.373Z,100123.91
2018-07-30T10:10:03.821Z,100118.11
2018-07-30T10:12:31.969Z,100119.19
2018-07-30T10:15:00.082Z,100119.02
2018-07-30T10:17:28.353Z,100120.58
2018-07-30T10:19:56.479Z,100120.88
2018-07-30T10:22:24.637Z,100117.55
2018-07-30T10:24:52.785Z,100120.71
2018-07-30T10:44:37.261Z,100093.59
2018-07-30T10:47:05.438Z,100098.44
2018-07-30T10:49:33.688Z,100092.01
2018-07-30T10:52:01.821Z,100085.33
2018-07-30T10:54:31.065Z,100078.59
2018-07-30T10:56:59.757Z,100079.78
2018-07-30T10:59:28.067Z,100076.08
2018-07-30T11:01:56.187Z,100073.47
2018-07-30T11:04:25.398Z,100079.53
2018-07-30T11:06:53.515Z,100077.00
2018-07-30T11:09:21.978Z,100076.16
2018-07-30T11:11:50.182Z,100075.39
2018-07-30T11:14:18.731Z,100071.37
2018-07-30T11:16:47.024Z,100074.55
2018-07-30T11:19:15.225Z,100074.69
2018-07-30T11:21:43.380Z,100072.27
2018-07-30T11:24:11.492Z,100066.41
2018-07-30T11:26:39.976Z,100066.79
2018-07-30T11:29:08.808Z,100067.39
2018-07-30T11:31:37.389Z,100065.28
2018-07-30T11:34:06.040Z,100057.75
2018-07-30T11:36:34.385Z,100053.43
2018-07-30T11:39:02.691Z,100048.08
2018-07-30T11:41:31.268Z,100053.98
2018-07-30T11:43:59.880Z,100055.64
2018-07-30T11:46:28.075Z,100044.95
2018-07-30T11:48:56.321Z,100030.48
2018-07-30T11:51:24.488Z,100035.55
2018-07-30T11:53:53.140Z,100032.70
2018-07-30T11:56:21.551Z,100027.50
2018-07-30T11:58:50.036Z,100026.86
2018-07-30T12:01:18.387Z,100035.96
2018-07-30T12:03:47.007Z,100030.92
2018-07-30T12:06:15.998Z,100023.95
2018-07-30T12:08:44.679Z,100021.09
2018-07-30T12:11:13.803Z,100021.97
2018-07-30T12:13:44.197Z,100020.02
2018-07-30T12:16:13.886Z,100016.14
2018-07-30T12:18:44.502Z,100024.33
2018-07-30T12:21:12.997Z,100014.05
2018-07-30T12:40:55.749Z,99981.58
2018-07-30T12:43:24.121Z,99968.70
2018-07-30T12:45:52.334Z,99971.44
2018-07-30T12:48:20.515Z,99972.92
2018-07-30T12:50:48.664Z,99969.64
2018-07-30T12:53:17.084Z,99972.81
2018-07-30T12:55:47.018Z,99981.61
2018-07-30T12:58:15.188Z,99971.11
2018-07-30T13:00:43.293Z,99969.32
2018-07-30T13:03:11.484Z,99968.89
2018-07-30T13:05:39.629Z,99965.50
2018-07-30T13:08:07.754Z,99967.58
2018-07-30T13:10:35.939Z,99957.54
2018-07-30T13:13:04.128Z,99952.66
2018-07-30T13:15:32.274Z,99950.24
2018-07-30T13:18:00.443Z,99938.69
2018-07-30T13:20:28.548Z,99942.94
2018-07-30T13:22:56.740Z,99943.77
2018-07-30T13:25:24.932Z,99942.58
2018-07-30T13:45:08.595Z,99928.56
2018-07-30T13:47:36.787Z,99926.67
2018-07-30T13:50:05.859Z,99928.31
2018-07-30T13:52:33.980Z,99926.02
2018-07-30T13:55:02.627Z,99923.74
2018-07-30T13:57:31.005Z,99923.94
2018-07-30T13:59:59.226Z,99926.00
2018-07-30T14:19:44.514Z,99914.33
2018-07-30T14:22:12.668Z,99918.24
2018-07-30T14:24:41.181Z,99911.97
2018-07-30T14:44:24.941Z,99903.05
2018-07-30T14:46:53.838Z,99905.44
2018-07-30T14:49:26.847Z,99907.00
2018-07-30T14:51:55.240Z,99904.00
2018-07-30T15:11:42.079Z,99884.02
2018-07-30T15:14:10.540Z,99881.42
2018-07-30T15:16:40.163Z,99887.83
2018-07-30T15:19:09.469Z,99889.95
2018-07-30T15:21:37.689Z,99882.62
2018-07-30T15:24:06.573Z,99887.07
2018-07-30T15:26:34.762Z,99883.56
2018-07-30T15:29:03.115Z,99874.31
2018-07-30T15:31:32.900Z,99883.39
2018-07-30T15:34:01.284Z,99874.59
2018-07-30T15:36:31.756Z,99881.13
2018-07-30T15:38:59.956Z,99872.95
2018-07-30T15:41:28.161Z,99875.22
2018-07-30T15:43:56.783Z,99881.95
2018-07-30T15:46:25.304Z,99887.33
2018-07-30T15:48:54.008Z,99888.75
2018-07-30T15:51:22.362Z,99887.24
2018-07-30T15:53:50.579Z,99887.30
2018-07-30T16:13:34.001Z,99886.80
2018-07-30T16:16:03.484Z,99880.89
2018-07-30T16:18:32.527Z,99882.27
2018-07-30T16:21:01.002Z,99883.44
2018-07-30T16:23:29.929Z,99884.16
2018-07-30T16:25:58.310Z,99887.70
2018-07-30T16:28:26.494Z,99889.45
2018-07-30T16:30:54.851Z,99888.10
2018-07-30T16:33:22.999Z,99887.41
2018-07-30T16:35:51.416Z,99888.02
2018-07-30T16:38:19.623Z,99892.88
2018-07-30T16:40:48.100Z,99893.67
2018-07-30T16:43:16.616Z,99887.76
2018-07-30T16:45:44.844Z,99891.06
2018-07-30T16:48:14.101Z,99893.05
2018-07-30T16:50:44.233Z,99888.20
2018-07-30T16:53:13.836Z,99895.81
2018-07-30T16:55:44.350Z,99892.98
2018-07-30T16:58:14.641Z,99896.95
2018-07-30T17:00:43.003Z,99893.08
2018-07-30T17:03:11.172Z,99894.81
2018-07-30T17:05:40.714Z,99894.77
2018-07-30T17:08:08.807Z,99890.34
2018-07-30T17:10:37.625Z,99892.29
2018-07-30T17:13:05.993Z,99890.78
2018-07-30T17:15:34.131Z,99889.35
2018-07-30T17:18:03.353Z,99890.83
2018-07-30T17:20:31.949Z,99891.16
2018-07-30T17:23:00.176Z,99888.75
2018-07-30T17:25:28.640Z,99886.14
2018-07-30T17:27:57.192Z,99897.62
2018-07-30T17:47:39.674Z,99905.45
2018-07-30T17:50:07.923Z,99904.65
2018-07-30T17:52:36.384Z,99901.52
2018-07-30T17:55:04.599Z,99902.41
2018-07-30T17:57:33.348Z,99894.48
2018-07-30T18:00:01.506Z,99890.50
2018-07-30T18:02:29.750Z,99903.38
2018-07-30T18:04:58.143Z,99898.84
2018-07-30T18:07:26.360Z,99901.84
2018-07-30T18:09:54.532Z,99901.09
2018-07-30T18:12:22.765Z,99912.08
2018-07-30T18:14:51.161Z,99906.11
2018-07-30T18:17:19.376Z,99908.68
2018-07-30T18:19:47.594Z,99917.55
2018-07-30T18:22:16.459Z,99914.81
2018-07-30T18:24:45.376Z,99919.94
2018-07-30T18:27:14.273Z,99917.16
2018-07-30T18:29:42.711Z,99917.30
2018-07-30T18:32:12.505Z,99915.08
2018-07-30T18:34:40.990Z,99914.11
2018-07-30T18:37:09.258Z,99924.03
2018-07-30T18:39:40.656Z,99925.73
2018-07-30T18:42:09.166Z,99923.55
2018-07-30T18:44:38.039Z,99928.91
2018-07-30T18:47:06.222Z,99930.63
2018-07-30T18:49:34.426Z,99928.74
2018-07-30T18:52:02.635Z,99931.30
2018-07-30T18:54:31.035Z,99926.08
2018-07-30T18:57:00.287Z,99932.75
2018-07-30T18:59:28.598Z,99931.94
2018-07-30T19:02:02.859Z,99937.99
2018-07-30T19:04:31.874Z,99938.97
2018-07-30T19:07:02.313Z,99948.00
2018-07-30T19:09:30.414Z,99951.84
2018-07-30T19:11:58.900Z,99953.13
2018-07-30T19:14:27.038Z,99955.89
2018-07-30T19:16:55.515Z,99956.26
2018-07-30T19:19:23.986Z,99964.38
2018-07-30T19:21:52.122Z,99971.31
2018-07-30T19:24:21.212Z,99962.91
2018-07-30T19:26:51.597Z,99966.84
2018-07-30T19:29:20.366Z,99973.70
2018-07-30T19:31:49.672Z,99974.27
2018-07-30T19:34:18.237Z,99977.83
2018-07-30T19:36:49.793Z,99976.66
2018-07-30T19:56:35.042Z,99997.78
2018-07-30T20:16:17.907Z,100001.58
2018-07-30T20:18:46.694Z,100010.90
2018-07-30T20:21:14.848Z,100005.41
2018-07-30T20:23:43.327Z,100007.26
2018-07-30T20:43:27.211Z,100003.45
2018-07-30T20:45:55.447Z,100003.37
2018-07-30T20:48:24.612Z,100008.30
2018-07-30T20:50:53.859Z,100003.23
2018-07-30T20:53:22.437Z,100011.47
2018-07-30T20:55:50.614Z,100006.41
2018-07-30T20:58:18.822Z,100009.48
2018-07-30T21:00:46.963Z,100013.52
2018-07-30T21:03:17.786Z,100017.16
2018-07-30T21:05:45.968Z,100021.41
2018-07-30T21:25:30.125Z,100037.91
2018-07-30T21:27:58.321Z,100037.55
2018-07-30T21:30:29.081Z,100035.33
2018-07-30T21:32:59.160Z,100032.88
2018-07-30T21:52:42.490Z,100021.51
2018-07-30T21:55:11.658Z,100020.58
2018-07-30T21:57:41.678Z,100021.88
2018-07-30T22:00:13.789Z,100026.19
2018-07-30T22:02:43.242Z,100024.41
2018-07-30T22:05:13.839Z,100023.25
2018-07-30T22:07:42.698Z,100022.34
2018-07-30T22:10:11.090Z,100025.15
2018-07-30T22:12:39.986Z,100031.30
2018-07-30T22:32:23.185Z,100024.10
2018-07-30T22:34:51.379Z,100026.20
2018-07-30T22:54:34.142Z,100033.00
2018-07-30T22:57:02.258Z,100021.00
2018-07-30T22:59:30.424Z,100029.35
2018-07-30T23:01:58.550Z,100026.58
2018-07-30T23:04:27.008Z,100023.98
2018-07-30T23:06:55.433Z,100023.25
2018-07-30T23:09:25.241Z,100024.23
2018-07-30T23:11:54.109Z,100025.60
2018-07-30T23:14:22.288Z,100017.64
2018-07-30T23:16:50.430Z,100017.42
2018-07-30T23:19:18.754Z,100024.35
2018-07-30T23:39:05.632Z,100017.02
2018-07-30T23:41:34.083Z,100014.50
2018-07-30T23:44:02.284Z,100011.16
2018-07-30T23:46:30.481Z,100013.69
2018-07-30T23:48:59.604Z,100011.42
2018-07-30T23:51:29.783Z,100013.66
2018-07-30T23:53:59.084Z,100010.82
2018-07-30T23:56:27.232Z,100008.20
